Time;durP1;ratioP1;P1;durP2;ratioP2;P2;SDS_P1;SDS_P2;PMS_P1;PMS_P2;Temp;Humidity;BMP_temperature;BMP_pressure;BME280_temperature;BME280_humidity;BME280_pressure;Samples;Min_cycle;Max_cycle;Signal;HPM_P1;HPM_P2
2023/01/15 00:01:55;;;;;;;4.47;1.02;;;;;;;1.96;90.56;98721.91;5000348;28;20496;-47
2023/01/15 00:04:21;;;;;;;15.38;1.98;;;;;;;1.94;90.22;98721.41;5018208;28;20058;-43
2023/01/15 00:06:48;;;;;;;3.90;1.00;;;;;;;1.92;90.62;98729.16;5024954;28;20392;-48
2023/01/15 00:09:15;;;;;;;5.53;0.85;;;;;;;1.93;90.87;98711.66;5021285;28;20042;-45
2023/01/15 00:11:42;;;;;;;5.28;1.17;;;;;;;1.93;90.91;98708.94;5024446;28;20593;-44
2023/01/15 00:14:09;;;;;;;6.32;1.48;;;;;;;1.91;90.52;98703.78;5021642;28;20778;-46
2023/01/15 00:16:35;;;;;;;3.63;1.52;;;;;;;1.92;90.64;98713.59;5021655;28;20312;-50
2023/01/15 00:19:03;;;;;;;6.40;1.05;;;;;;;1.94;91.02;98705.06;5023441;28;20045;-47
2023/01/15 00:21:30;;;;;;;1.77;1.23;;;;;;;1.94;90.77;98708.59;5018561;28;20174;-44
2023/01/15 00:29:28;;;;;;;4.32;0.68;;;;;;;1.93;90.85;98711.66;5027264;28;20047;-42
2023/01/15 00:31:58;;;;;;;2.33;0.98;;;;;;;1.93;91.32;98682.44;5009326;28;20135;-46
2023/01/15 00:34:26;;;;;;;2.90;0.82;;;;;;;1.92;91.35;98672.66;5027014;28;20625;-44
2023/01/15 00:36:53;;;;;;;3.90;0.80;;;;;;;1.93;91.43;98670.72;5035884;28;20465;-44
2023/01/15 00:39:20;;;;;;;3.00;1.10;;;;;;;1.92;91.62;98675.38;5027290;28;20038;-42
2023/01/15 00:41:47;;;;;;;2.47;0.60;;;;;;;1.93;91.32;98673.47;5003096;28;20395;-42
2023/01/15 00:44:14;;;;;;;5.30;1.15;;;;;;;1.94;91.72;98653.22;5027031;28;20050;-48
2023/01/15 00:46:41;;;;;;;2.22;0.60;;;;;;;1.94;91.46;98636.84;5027198;28;20136;-42
2023/01/15 00:49:08;;;;;;;2.33;0.80;;;;;;;1.94;91.80;98637.63;5026682;28;20395;-42
2023/01/15 00:51:35;;;;;;;3.33;0.70;;;;;;;1.97;91.71;98631.50;5027049;28;20099;-42
2023/01/15 00:54:02;;;;;;;3.40;1.17;;;;;;;2.02;91.83;98639.47;5033065;28;20045;-43
2023/01/15 00:56:29;;;;;;;6.90;1.30;;;;;;;2.05;91.91;98638.00;5026094;28;20044;-44
2023/01/15 00:58:55;;;;;;;4.40;1.02;;;;;;;2.06;91.69;98623.22;5027059;28;20056;-45
2023/01/15 01:01:23;;;;;;;3.10;1.02;;;;;;;2.06;91.84;98612.31;5026712;28;20061;-45
2023/01/15 01:03:51;;;;;;;4.05;0.90;;;;;;;2.11;92.19;98636.63;5008266;28;20045;-47
2023/01/15 01:06:19;;;;;;;2.88;0.73;;;;;;;2.15;92.12;98627.41;5027459;28;20049;-45
2023/01/15 01:08:47;;;;;;;4.68;1.98;;;;;;;2.16;91.75;98637.22;5026704;28;20044;-43
2023/01/15 01:11:17;;;;;;;2.55;1.23;;;;;;;2.18;92.11;98642.31;5038275;28;20045;-43
2023/01/15 01:13:45;;;;;;;1.25;0.85;;;;;;;2.22;92.29;98649.50;5021124;28;20049;-44
2023/01/15 01:16:32;;;;;;;2.80;0.88;;;;;;;2.26;91.90;98644.94;5015464;28;20688;-47
2023/01/15 01:19:02;;;;;;;1.38;0.80;;;;;;;2.32;92.45;98648.25;5025297;28;20398;-42
2023/01/15 01:21:29;;;;;;;1.88;0.70;;;;;;;2.37;92.13;98658.94;5026696;28;20045;-44
2023/01/15 01:24:00;;;;;;;5.22;1.63;;;;;;;2.43;92.14;98660.31;5026663;28;20080;-44
2023/01/15 01:26:28;;;;;;;1.92;1.20;;;;;;;2.49;92.23;98653.44;5025420;28;20046;-43
2023/01/15 01:28:56;;;;;;;5.63;0.98;;;;;;;2.51;92.05;98642.19;5032046;28;20557;-43
2023/01/15 01:31:23;;;;;;;1.55;0.50;;;;;;;2.51;91.92;98640.28;5026308;28;20107;-43
2023/01/15 01:33:51;;;;;;;3.75;0.68;;;;;;;2.51;91.90;98640.28;5026446;28;20419;-42
2023/01/15 01:36:19;;;;;;;6.28;0.73;;;;;;;2.53;92.11;98651.63;5026277;28;20041;-44
2023/01/15 01:38:48;;;;;;;0.88;0.52;;;;;;;2.54;92.37;98653.25;5006241;28;20068;-44
2023/01/15 01:41:17;;;;;;;2.88;0.80;;;;;;;2.55;92.43;98657.53;5022873;28;20041;-46
2023/01/15 01:43:55;;;;;;;2.95;0.73;;;;;;;2.57;92.30;98657.22;5023519;28;20038;-42
2023/01/15 01:46:22;;;;;;;1.05;0.52;;;;;;;2.57;92.33;98655.25;5039120;28;20735;-42
2023/01/15 01:49:11;;;;;;;2.50;0.60;;;;;;;2.59;92.43;98663.13;5026471;28;20080;-44
2023/01/15 01:51:42;;;;;;;1.77;0.35;;;;;;;2.58;92.13;98659.59;5026859;28;20053;-44
2023/01/15 01:54:11;;;;;;;0.65;0.30;;;;;;;2.59;92.40;98647.53;5026532;28;20061;-44
2023/01/15 01:56:38;;;;;;;1.27;1.02;;;;;;;2.60;92.60;98684.63;5025020;28;20050;-43
2023/01/15 01:59:06;;;;;;;2.80;0.95;;;;;;;2.59;92.71;98647.53;5025711;28;20049;-43
2023/01/15 02:01:33;;;;;;;2.72;0.80;;;;;;;2.57;92.58;98658.00;5032058;28;20056;-44
2023/01/15 02:04:01;;;;;;;1.17;0.55;;;;;;;2.54;92.51;98658.72;5008586;28;20045;-42
2023/01/15 02:06:28;;;;;;;0.60;0.32;;;;;;;2.53;92.42;98662.56;5024746;28;20046;-42
2023/01/15 02:08:55;;;;;;;1.77;0.50;;;;;;;2.51;92.50;98667.59;5026110;28;20403;-44
2023/01/15 02:11:23;;;;;;;1.45;0.60;;;;;;;2.51;92.99;98655.84;5024062;28;20045;-43
2023/01/15 02:14:02;;;;;;;2.95;0.40;;;;;;;2.50;92.95;98655.06;5026297;28;20056;-44
2023/01/15 02:16:44;;;;;;;0.47;0.43;;;;;;;2.47;92.59;98655.72;5008123;28;20058;-48
2023/01/15 02:19:44;;;;;;;2.50;1.08;;;;;;;2.46;92.63;98667.81;5036750;28;20103;-44
2023/01/15 02:22:29;;;;;;;0.90;0.40;;;;;;;2.43;92.99;98643.91;5016461;28;20385;-45
2023/01/15 02:25:10;;;;;;;1.73;0.70;;;;;;;2.42;92.88;98647.78;5026238;28;20057;-47
2023/01/15 02:27:47;;;;;;;1.27;0.95;;;;;;;2.39;92.79;98648.44;5026237;28;20566;-45
2023/01/15 02:30:26;;;;;;;3.60;0.82;;;;;;;2.39;93.19;98643.00;5026834;28;20100;-44
2023/01/15 02:32:57;;;;;;;0.40;0.30;;;;;;;2.38;92.87;98644.16;5027085;28;20042;-44
2023/01/15 02:35:30;;;;;;;2.13;0.73;;;;;;;2.38;92.82;98641.41;5032741;28;20059;-43
2023/01/15 02:38:02;;;;;;;1.52;0.50;;;;;;;2.37;93.12;98632.44;5029827;28;20575;-44
2023/01/15 02:40:31;;;;;;;4.83;0.97;;;;;;;2.39;93.12;98651.19;5026690;28;20526;-44
2023/01/15 02:42:58;;;;;;;1.55;0.57;;;;;;;2.41;93.42;98630.59;5025810;28;21311;-49
2023/01/15 02:45:30;;;;;;;1.55;1.40;;;;;;;2.43;93.46;98628.34;5025509;28;20487;-44
2023/01/15 02:48:02;;;;;;;4.20;0.70;;;;;;;2.45;93.23;98636.97;5029310;28;20053;-47
2023/01/15 02:50:36;;;;;;;0.60;0.30;;;;;;;2.49;93.35;98634.34;5028795;28;20057;-42
2023/01/15 02:53:07;;;;;;;1.83;0.80;;;;;;;2.53;93.42;98631.72;5033994;28;20534;-44
2023/01/15 02:55:39;;;;;;;3.17;0.50;;;;;;;2.56;93.47;98640.03;5029034;28;20099;-44
2023/01/15 02:58:11;;;;;;;3.90;1.05;;;;;;;2.61;93.35;98611.69;5016844;28;20046;-45
2023/01/15 03:00:44;;;;;;;2.53;0.75;;;;;;;2.64;93.37;98641.84;5035355;23;20017;-44
2023/01/15 03:03:43;;;;;;;5.63;0.65;;;;;;;2.69;93.60;98635.34;5008303;28;20108;-48
2023/01/15 03:06:18;;;;;;;2.17;0.70;;;;;;;2.70;93.24;98632.25;4975643;28;20066;-43
2023/01/15 03:08:45;;;;;;;0.80;0.55;;;;;;;2.72;93.32;98635.47;5009593;28;20061;-42
2023/01/15 03:11:15;;;;;;;5.80;1.00;;;;;;;2.73;93.31;98626.09;5015596;28;20423;-46
2023/01/15 03:13:42;;;;;;;3.90;1.23;;;;;;;2.73;93.42;98622.56;5009276;28;20042;-42
2023/01/15 03:16:37;;;;;;;2.17;0.70;;;;;;;2.73;93.68;98620.63;5008784;28;20054;-44
2023/01/15 03:19:37;;;;;;;1.30;0.75;;;;;;;2.71;93.50;98622.91;4999671;28;20077;-42
2023/01/15 03:22:09;;;;;;;3.92;0.63;;;;;;;2.70;93.64;98620.56;5009055;28;20056;-42
2023/01/15 03:24:58;;;;;;;3.35;0.45;;;;;;;2.70;93.79;98610.38;5008665;28;20046;-43
2023/01/15 03:27:26;;;;;;;3.95;0.82;;;;;;;2.68;93.76;98629.06;5020742;28;20054;-42
2023/01/15 03:30:11;;;;;;;3.22;0.65;;;;;;;2.70;93.72;98632.25;4990683;28;20755;-42
2023/01/15 03:32:39;;;;;;;10.57;2.10;;;;;;;2.73;94.03;98626.09;5006585;28;20062;-42
2023/01/15 03:35:26;;;;;;;5.95;1.75;;;;;;;2.76;93.95;98625.41;5005871;28;20379;-42
2023/01/15 03:37:53;;;;;;;4.05;0.95;;;;;;;2.77;93.75;98627.03;5007537;28;20049;-47
2023/01/15 03:40:21;;;;;;;4.47;1.02;;;;;;;2.78;94.17;98625.09;5008100;28;20042;-42
2023/01/15 03:45:51;;;;;;;6.35;1.52;;;;;;;2.80;94.47;98631.78;5002934;28;20638;-43
2023/01/15 03:48:33;;;;;;;5.10;0.98;;;;;;;2.81;94.29;98627.91;5006959;28;20144;-44
2023/01/15 03:51:11;;;;;;;4.32;1.10;;;;;;;2.82;94.17;98621.31;4978454;28;20060;-46
2023/01/15 03:53:59;;;;;;;4.10;1.08;;;;;;;2.85;94.60;98631.56;5003000;28;20523;-42
2023/01/15 03:56:34;;;;;;;6.95;1.20;;;;;;;2.87;94.20;98634.72;4985472;28;20061;-43
2023/01/15 03:59:16;;;;;;;3.33;0.88;;;;;;;2.88;94.46;98639.06;5006533;28;20049;-43
2023/01/15 04:01:44;;;;;;;7.93;0.80;;;;;;;2.90;94.39;98623.09;5011638;28;20064;-43
2023/01/15 04:04:13;;;;;;;4.40;1.10;;;;;;;2.92;94.23;98618.09;5003900;28;20414;-42
2023/01/15 04:06:41;;;;;;;8.00;0.90;;;;;;;2.92;94.46;98617.28;5006833;28;20542;-42
2023/01/15 04:09:10;;;;;;;5.35;0.85;;;;;;;2.93;94.48;98625.16;5005984;28;20112;-42
2023/01/15 04:11:38;;;;;;;5.78;0.90;;;;;;;2.93;94.68;98625.16;5007193;28;20037;-43
2023/01/15 04:14:05;;;;;;;5.55;1.15;;;;;;;2.94;94.34;98621.25;5005943;28;20054;-43
2023/01/15 04:16:33;;;;;;;3.58;1.40;;;;;;;2.96;94.44;98629.94;5003928;28;20057;-43
2023/01/15 04:19:00;;;;;;;4.32;1.05;;;;;;;2.98;94.86;98635.03;5014050;28;20519;-42
2023/01/15 04:21:27;;;;;;;7.15;2.55;;;;;;;3.00;94.84;98641.75;5006206;28;20491;-43
2023/01/15 04:23:53;;;;;;;6.15;1.50;;;;;;;3.01;94.43;98640.63;5002556;28;20446;-43
2023/01/15 04:26:20;;;;;;;4.20;0.93;;;;;;;3.03;94.64;98641.06;5007414;28;20401;-48
2023/01/15 04:28:47;;;;;;;8.75;1.45;;;;;;;3.04;94.84;98648.09;5003591;28;20049;-42
2023/01/15 04:31:14;;;;;;;7.88;1.88;;;;;;;3.06;94.66;98639.56;5004992;28;20581;-43
2023/01/15 04:33:41;;;;;;;9.27;0.73;;;;;;;3.08;94.96;98643.53;5006651;28;20092;-50
2023/01/15 04:36:09;;;;;;;4.28;0.77;;;;;;;3.10;94.84;98634.22;5006671;28;20050;-47
2023/01/15 04:38:37;;;;;;;5.80;0.90;;;;;;;3.11;94.53;98649.47;5005188;28;20052;-43
2023/01/15 04:44:05;;;;;;;6.35;1.10;;;;;;;3.11;94.75;98652.19;4994386;28;20046;-49
2023/01/15 04:46:41;;;;;;;4.10;0.77;;;;;;;3.11;94.96;98635.78;5006059;28;20050;-43
2023/01/15 04:49:11;;;;;;;4.15;1.42;;;;;;;3.11;94.50;98644.00;5004673;28;20050;-42
2023/01/15 04:51:38;;;;;;;11.70;3.17;;;;;;;3.11;94.68;98646.72;5013598;28;20041;-43
2023/01/15 04:54:07;;;;;;;8.93;0.90;;;;;;;3.12;94.67;98651.06;5005405;28;20207;-41
2023/01/15 04:56:40;;;;;;;4.45;0.95;;;;;;;3.12;94.51;98653.78;5006387;28;20057;-47
2023/01/15 04:59:07;;;;;;;4.18;1.55;;;;;;;3.14;94.80;98660.50;5002922;28;20132;-45
2023/01/15 05:01:35;;;;;;;8.15;1.17;;;;;;;3.15;94.59;98647.63;5003823;28;20506;-43
2023/01/15 05:04:02;;;;;;;5.95;1.48;;;;;;;3.17;94.64;98656.28;5003785;28;20519;-42
2023/01/15 05:06:30;;;;;;;3.80;1.48;;;;;;;3.17;94.85;98642.59;5005172;28;20140;-43
2023/01/15 05:08:58;;;;;;;8.55;2.03;;;;;;;3.17;94.81;98653.53;5013094;28;20041;-42
2023/01/15 05:11:26;;;;;;;5.15;1.23;;;;;;;3.18;94.68;98658.66;5009544;28;20057;-43
2023/01/15 05:13:53;;;;;;;5.65;1.20;;;;;;;3.18;94.73;98661.38;5006486;28;20038;-43
2023/01/15 05:16:25;;;;;;;3.13;0.93;;;;;;;3.20;95.09;98672.00;5003377;28;20145;-46
2023/01/15 05:18:55;;;;;;;9.43;2.22;;;;;;;3.19;94.72;98664.91;5004869;28;20071;-43
2023/01/15 05:21:25;;;;;;;9.57;1.33;;;;;;;3.19;94.61;98664.91;5004792;28;20048;-43
2023/01/15 05:23:53;;;;;;;9.07;1.67;;;;;;;3.19;94.83;98665.72;5006819;28;20042;-43
2023/01/15 05:26:20;;;;;;;7.10;1.10;;;;;;;3.19;94.80;98671.19;5006648;28;20060;-44
2023/01/15 05:28:48;;;;;;;4.90;1.33;;;;;;;3.19;94.81;98676.66;5007035;28;20050;-44
2023/01/15 05:31:17;;;;;;;4.00;1.23;;;;;;;3.18;94.80;98675.06;5006229;28;20385;-42
2023/01/15 05:33:45;;;;;;;7.55;1.25;;;;;;;3.19;95.11;98675.84;5005158;28;20104;-44
2023/01/15 05:36:15;;;;;;;5.40;1.20;;;;;;;3.17;95.11;98676.22;5006588;28;20045;-43
2023/01/15 05:38:42;;;;;;;8.18;1.73;;;;;;;3.17;94.83;98669.94;5005161;28;20054;-42
2023/01/15 05:44:00;;;;;;;16.58;1.65;;;;;;;3.17;94.91;98672.69;4989459;28;20140;-50
2023/01/15 05:46:28;;;;;;;6.55;1.70;;;;;;;3.18;95.12;98674.28;5005272;28;20050;-46
2023/01/15 05:49:02;;;;;;;10.43;1.50;;;;;;;3.18;94.72;98675.06;5002372;28;20061;-43
2023/01/15 05:51:29;;;;;;;8.35;1.65;;;;;;;3.19;94.75;98671.19;5000415;28;20049;-43
2023/01/15 05:53:57;;;;;;;5.22;0.90;;;;;;;3.20;95.13;98677.47;5004689;28;20500;-42
2023/01/15 05:56:24;;;;;;;8.18;1.13;;;;;;;3.22;95.03;98692.38;5006255;28;20042;-43
2023/01/15 05:58:50;;;;;;;10.65;1.48;;;;;;;3.24;95.10;98694.75;5004281;28;20045;-46
2023/01/15 06:01:17;;;;;;;6.22;1.20;;;;;;;3.25;94.93;98704.56;5004951;28;20058;-46
2023/01/15 06:03:45;;;;;;;5.75;1.08;;;;;;;3.26;94.67;98703.41;5005352;28;20042;-46
2023/01/15 06:06:17;;;;;;;10.23;2.00;;;;;;;3.25;94.68;98701.81;4987536;28;20053;-44
2023/01/15 06:08:44;;;;;;;2.20;0.82;;;;;;;3.27;94.83;98705.00;5009266;28;20129;-43
2023/01/15 06:11:11;;;;;;;5.28;1.35;;;;;;;3.27;94.73;98715.94;5009540;28;20439;-42
2023/01/15 06:13:38;;;;;;;5.28;1.40;;;;;;;3.26;94.79;98715.13;5008057;28;20038;-45
2023/01/15 06:16:07;;;;;;;6.10;1.30;;;;;;;3.28;94.63;98723.00;5009473;28;20057;-43
2023/01/15 06:18:34;;;;;;;9.13;1.38;;;;;;;3.29;94.91;98713.66;5008601;28;20107;-43
2023/01/15 06:21:12;;;;;;;6.70;0.93;;;;;;;3.28;94.65;98721.09;5007836;28;20085;-45
2023/01/15 06:23:39;;;;;;;3.72;0.77;;;;;;;3.28;94.98;98731.22;5008300;28;20052;-43
2023/01/15 06:26:15;;;;;;;6.60;0.80;;;;;;;3.28;94.83;98737.50;5008161;28;20519;-44
2023/01/15 06:28:43;;;;;;;6.30;1.27;;;;;;;3.30;95.02;98753.53;5007045;28;20535;-42
2023/01/15 06:31:12;;;;;;;4.07;1.00;;;;;;;3.29;94.70;98741.78;5008046;28;20065;-44
2023/01/15 06:33:38;;;;;;;11.55;0.95;;;;;;;3.29;94.79;98746.47;5015552;28;20061;-42
2023/01/15 06:36:09;;;;;;;2.05;0.70;;;;;;;3.28;95.07;98756.63;5007682;28;20591;-46
2023/01/15 06:38:36;;;;;;;1.55;0.88;;;;;;;3.26;95.28;98753.41;5007515;28;20046;-42
2023/01/15 06:47:19;;;;;;;13.05;3.25;;;;;;;3.25;95.19;98762.78;5006846;28;20104;-42
2023/01/15 06:49:29;;;;;;;4.30;1.13;;;;;;;3.22;95.36;98770.88;4997702;28;20049;-42
2023/01/15 06:51:56;;;;;;;4.35;1.13;;;;;;;3.21;95.30;98786.47;5011880;28;20066;-41
2023/01/15 06:54:23;;;;;;;5.22;1.35;;;;;;;3.21;95.39;98788.41;5007103;28;20447;-42
2023/01/15 06:56:49;;;;;;;3.38;1.08;;;;;;;3.18;95.58;98784.44;5008172;28;20046;-43
2023/01/15 06:59:17;;;;;;;4.55;0.80;;;;;;;3.17;95.45;98782.84;5003961;28;20132;-43
2023/01/15 07:01:44;;;;;;;3.60;1.25;;;;;;;3.17;95.80;98795.72;5002262;28;20050;-44
2023/01/15 07:04:13;;;;;;;6.90;1.65;;;;;;;3.16;95.91;98792.19;5008247;28;20129;-49
2023/01/15 07:06:39;;;;;;;4.68;1.05;;;;;;;3.16;95.88;98794.13;5007264;28;20049;-46
2023/01/15 07:09:06;;;;;;;4.30;1.10;;;;;;;3.14;95.87;98790.94;5018638;28;20042;-40
2023/01/15 07:11:34;;;;;;;6.18;1.08;;;;;;;3.12;95.93;98801.41;5009313;28;20067;-42
2023/01/15 07:14:06;;;;;;;9.45;1.23;;;;;;;3.10;96.20;98814.66;5009047;28;20128;-41
2023/01/15 07:16:36;;;;;;;;;;;;;;;3.08;96.25;98810.31;5008806;28;20045;-41
2023/01/15 07:19:03;;;;;;;5.13;0.95;;;;;;;3.05;96.02;98805.53;4990866;28;20253;-43
2023/01/15 07:21:30;;;;;;;7.25;0.93;;;;;;;3.06;96.13;98812.59;5008733;28;20117;-43
2023/01/15 07:24:00;;;;;;;6.93;0.80;;;;;;;3.05;96.41;98819.19;5009610;28;20518;-42
2023/01/15 07:26:27;;;;;;;3.35;0.88;;;;;;;3.06;96.33;98825.47;5010364;28;20054;-43
2023/01/15 07:28:54;;;;;;;9.02;1.42;;;;;;;3.06;96.49;98830.94;4991430;28;20096;-43
2023/01/15 07:31:22;;;;;;;7.18;0.95;;;;;;;3.05;96.87;98832.84;5007698;28;20139;-42
2023/01/15 07:33:49;;;;;;;5.20;0.70;;;;;;;3.05;96.56;98832.84;5006050;28;20149;-41
2023/01/15 07:36:17;;;;;;;4.20;1.67;;;;;;;3.05;96.85;98829.31;5007919;28;20734;-41
2023/01/15 07:38:43;;;;;;;10.43;2.38;;;;;;;3.05;96.79;98841.06;5005883;28;20254;-43
2023/01/15 07:49:44;;;;;;;7.38;1.23;;;;;;;3.08;97.13;98853.25;5006171;28;20042;-42
2023/01/15 07:52:18;;;;;;;3.08;1.40;;;;;;;3.10;96.97;98852.91;4988166;28;20072;-43
2023/01/15 07:54:47;;;;;;;6.07;1.35;;;;;;;3.11;97.18;98859.97;5005498;28;20057;-42
2023/01/15 07:57:17;;;;;;;4.82;0.70;;;;;;;3.12;97.14;98856.09;5007360;28;20057;-47
2023/01/15 07:59:43;;;;;;;6.78;1.23;;;;;;;3.14;97.61;98859.28;5008419;28;20050;-41
2023/01/15 08:02:11;;;;;;;13.00;2.22;;;;;;;3.14;97.47;98857.34;5004897;28;20065;-42
2023/01/15 08:04:38;;;;;;;8.20;1.58;;;;;;;3.15;97.69;98858.94;5007029;28;20084;-42
2023/01/15 08:07:09;;;;;;;7.07;1.33;;;;;;;3.15;97.61;98858.16;4995349;28;20060;-42
2023/01/15 08:09:36;;;;;;;5.38;1.50;;;;;;;3.17;97.65;98866.81;5003685;28;20049;-42
2023/01/15 08:17:35;;;;;;;12.90;2.30;;;;;;;3.15;97.71;98883.53;5005783;28;20092;-42
2023/01/15 08:20:14;;;;;;;11.23;1.50;;;;;;;3.16;98.13;98884.34;5006047;28;20038;-42
2023/01/15 08:22:43;;;;;;;4.82;1.30;;;;;;;3.17;97.89;98891.41;5005905;28;20092;-42
2023/01/15 08:25:12;;;;;;;9.52;1.50;;;;;;;3.16;98.10;98895.28;5007705;28;20100;-43
2023/01/15 08:27:39;;;;;;;8.27;1.63;;;;;;;3.16;97.98;98901.53;5005731;28;20042;-43
2023/01/15 08:30:13;;;;;;;9.07;2.15;;;;;;;3.17;98.03;98903.16;5000136;28;20385;-44
2023/01/15 08:32:39;;;;;;;13.68;2.13;;;;;;;3.16;98.37;98896.06;5002836;28;20562;-42
2023/01/15 08:35:07;;;;;;;8.38;1.45;;;;;;;3.17;98.26;98899.63;5004243;28;20057;-42
2023/01/15 08:37:34;;;;;;;18.33;3.95;;;;;;;3.16;98.30;98900.75;5005697;28;20065;-42
2023/01/15 08:40:00;;;;;;;19.40;2.60;;;;;;;3.16;98.67;98901.53;5003530;28;20056;-42
2023/01/15 08:42:27;;;;;;;10.85;1.52;;;;;;;3.15;98.55;98893.69;5005605;28;20045;-42
2023/01/15 08:44:55;;;;;;;15.57;2.55;;;;;;;3.14;98.36;98908.50;4988950;28;20104;-44
2023/01/15 08:47:21;;;;;;;7.45;1.45;;;;;;;3.14;98.53;98908.50;5007804;28;20041;-45
2023/01/15 08:49:49;;;;;;;19.95;2.88;;;;;;;3.13;98.94;98906.88;5015840;28;20053;-45
2023/01/15 08:52:17;;;;;;;8.73;1.77;;;;;;;3.12;98.97;98918.97;5009381;28;20060;-42
2023/01/15 08:54:43;;;;;;;9.90;1.42;;;;;;;3.11;98.83;98920.09;4990145;28;20065;-42
2023/01/15 08:57:12;;;;;;;11.43;1.75;;;;;;;3.12;98.64;98929.91;5007393;28;20476;-41
2023/01/15 08:59:41;;;;;;;4.88;1.55;;;;;;;3.14;99.18;98935.84;5007434;28;20081;-47
2023/01/15 09:02:13;;;;;;;10.02;1.52;;;;;;;3.14;99.06;98931.16;4989390;28;20046;-47
2023/01/15 09:04:40;;;;;;;13.82;2.80;;;;;;;3.15;99.01;98940.94;5007310;28;20050;-43
2023/01/15 09:07:06;;;;;;;22.35;1.98;;;;;;;3.14;98.74;98935.84;4993662;28;20064;-43
2023/01/15 09:09:33;;;;;;;10.23;2.50;;;;;;;3.12;99.00;98949.06;5005971;28;20129;-47
2023/01/15 09:12:00;;;;;;;10.05;2.20;;;;;;;3.12;98.84;98949.06;5007258;28;20061;-42
2023/01/15 09:14:27;;;;;;;10.07;2.53;;;;;;;3.11;99.03;98948.25;5007429;28;20411;-41
2023/01/15 09:17:13;;;;;;;8.20;2.13;;;;;;;3.14;99.43;98965.91;5007158;28;20045;-42
2023/01/15 09:19:40;;;;;;;9.32;2.17;;;;;;;3.13;99.05;98958.84;5005870;28;20045;-42
2023/01/15 09:22:07;;;;;;;11.38;2.25;;;;;;;3.14;99.39;98972.19;5005148;28;20129;-42
2023/01/15 09:24:33;;;;;;;10.45;2.50;;;;;;;3.16;99.55;98963.63;5005527;28;20046;-43
2023/01/15 09:27:00;;;;;;;17.45;2.60;;;;;;;3.17;99.26;98970.72;5004713;28;20050;-43
2023/01/15 09:29:27;;;;;;;13.63;2.10;;;;;;;3.18;99.54;98969.59;5006762;28;20073;-43
2023/01/15 09:31:53;;;;;;;12.18;2.10;;;;;;;3.19;99.54;98971.16;5006471;28;20042;-46
2023/01/15 09:34:20;;;;;;;11.45;1.90;;;;;;;3.20;99.48;98970.84;5006667;28;20274;-42
2023/01/15 09:36:47;;;;;;;10.98;1.88;;;;;;;3.22;99.30;98973.22;5006769;28;20073;-42
2023/01/15 09:39:13;;;;;;;16.38;2.97;;;;;;;3.24;99.50;98979.13;5006455;28;20060;-41
2023/01/15 09:42:14;;;;;;;24.25;8.98;;;;;;;3.28;99.42;98985.53;5014789;28;20128;-43
2023/01/15 09:45:12;;;;;;;22.40;5.35;;;;;;;3.31;99.45;98984.88;5011005;28;20144;-42
2023/01/15 09:47:47;;;;;;;11.05;2.40;;;;;;;3.36;99.76;99001.81;5010779;28;20527;-43
2023/01/15 09:50:24;;;;;;;9.45;2.38;;;;;;;3.40;99.89;99010.16;5010646;28;20137;-42
2023/01/15 09:53:00;;;;;;;7.03;2.80;;;;;;;3.43;99.29;99006.75;5006486;28;20054;-42
2023/01/15 09:55:30;;;;;;;14.98;2.45;;;;;;;3.45;99.45;99001.72;5005520;28;20065;-41
2023/01/15 09:58:01;;;;;;;10.82;2.55;;;;;;;3.47;99.78;98999.44;5017368;28;20051;-42
2023/01/15 10:00:34;;;;;;;4.18;1.30;;;;;;;3.49;99.72;99002.66;5010437;28;20096;-43
2023/01/15 10:03:37;;;;;;;10.50;1.80;;;;;;;3.53;99.98;99006.28;5002855;28;20049;-42
2023/01/15 10:06:24;;;;;;;11.18;1.70;;;;;;;3.56;99.75;99011.09;4997982;28;20045;-45
2023/01/15 10:09:18;;;;;;;8.32;2.13;;;;;;;3.58;99.98;99006.06;5011916;28;20042;-46
2023/01/15 10:14:53;;;;;;;9.35;1.70;;;;;;;3.61;100.00;99008.94;4972298;28;20503;-44
2023/01/15 10:17:26;;;;;;;7.32;1.38;;;;;;;3.63;99.91;99005.84;5003193;28;20373;-42
2023/01/15 10:19:53;;;;;;;;;;;;;;;3.65;99.81;99009.84;4994331;28;20870;-42
2023/01/15 10:22:30;;;;;;;8.27;2.33;;;;;;;3.69;99.64;99010.75;5006637;28;19925;-42
2023/01/15 10:25:00;;;;;;;5.97;1.70;;;;;;;3.76;100.00;99012.91;5004397;28;20472;-47
2023/01/15 10:27:32;;;;;;;3.05;1.30;;;;;;;3.83;100.00;99001.41;5007122;28;20112;-52
2023/01/15 10:30:19;;;;;;;4.55;1.40;;;;;;;3.86;99.99;99012.47;5010124;28;20040;-44
2023/01/15 10:32:53;;;;;;;4.43;1.92;;;;;;;3.91;100.00;99011.44;5007985;28;20052;-42
2023/01/15 10:35:53;;;;;;;3.47;1.70;;;;;;;3.96;99.59;99011.22;5010453;28;20053;-45
2023/01/15 10:39:00;;;;;;;6.72;2.10;;;;;;;3.97;99.95;99024.53;5011344;28;20049;-43
2023/01/15 10:41:39;;;;;;;7.93;1.88;;;;;;;3.99;99.86;99022.28;4954916;28;20050;-42
2023/01/15 10:44:23;;;;;;;13.35;2.63;;;;;;;3.99;99.73;99011.31;5000295;28;20508;-43
2023/01/15 10:46:57;;;;;;;9.05;3.55;;;;;;;3.97;99.84;99021.03;5008722;28;20049;-43
2023/01/15 10:49:27;;;;;;;5.43;1.77;;;;;;;3.96;99.86;99020.22;5015243;28;20459;-42
2023/01/15 10:52:02;;;;;;;9.73;2.17;;;;;;;4.00;100.00;99023.84;5007390;28;20060;-42
2023/01/15 10:54:41;;;;;;;7.75;1.92;;;;;;;4.07;100.00;99015.88;5002083;28;20046;-48
2023/01/15 10:57:19;;;;;;;18.00;1.73;;;;;;;4.15;100.00;99028.66;5008099;28;20049;-43
2023/01/15 10:59:59;;;;;;;9.98;2.58;;;;;;;4.25;100.00;99025.44;5009804;28;20361;-48
2023/01/15 11:02:29;;;;;;;12.40;2.80;;;;;;;4.35;99.87;99031.56;4992946;28;20045;-48
2023/01/15 11:04:56;;;;;;;11.88;3.92;;;;;;;4.40;99.85;99025.84;4993155;28;20080;-46
2023/01/15 11:07:43;;;;;;;8.90;1.98;;;;;;;4.38;99.71;99033.63;4991696;28;20068;-45
2023/01/15 11:10:31;;;;;;;6.85;2.10;;;;;;;4.40;99.69;99036.81;5008556;28;20053;-43
2023/01/15 11:19:36;;;;;;;4.75;1.80;;;;;;;4.51;99.89;99033.25;5010824;28;20054;-45
2023/01/15 11:22:16;;;;;;;6.32;2.25;;;;;;;4.49;99.91;99023.78;5012394;28;20141;-44
2023/01/15 11:24:52;;;;;;;8.38;2.08;;;;;;;4.43;99.62;99031.44;5013496;28;20484;-45
2023/01/15 11:27:23;;;;;;;4.80;2.08;;;;;;;4.42;100.00;99023.59;5010327;28;20099;-42
2023/01/15 11:29:55;;;;;;;5.22;1.17;;;;;;;4.44;99.93;99035.00;5010466;28;20041;-42
2023/01/15 11:32:24;;;;;;;6.60;1.88;;;;;;;4.43;100.00;99030.63;5010394;28;20053;-43
2023/01/15 11:34:52;;;;;;;8.80;2.67;;;;;;;4.43;100.00;99039.66;5010146;28;20046;-44
2023/01/15 11:37:19;;;;;;;14.35;2.80;;;;;;;4.45;99.97;99039.34;5000052;28;20440;-42
2023/01/15 11:40:05;;;;;;;6.30;2.10;;;;;;;4.45;100.00;99031.13;5008353;28;20060;-44
2023/01/15 11:51:08;;;;;;;11.77;2.20;;;;;;;4.51;100.00;99021.50;5000466;28;20051;-43
2023/01/15 11:53:41;;;;;;;6.75;2.25;;;;;;;4.49;100.00;99018.31;5007042;28;20064;-47
2023/01/15 11:56:15;;;;;;;5.55;1.70;;;;;;;4.51;100.00;99007.78;5007356;28;20048;-43
2023/01/15 11:58:48;;;;;;;5.72;1.95;;;;;;;4.55;100.00;99022.41;5006196;28;20534;-42
2023/01/15 12:01:27;;;;;;;6.63;2.00;;;;;;;4.64;100.00;99020.31;5006475;28;20527;-42
2023/01/15 12:03:54;;;;;;;6.97;2.45;;;;;;;4.70;100.00;99013.44;5000005;28;20045;-42
2023/01/15 12:06:22;;;;;;;11.95;2.67;;;;;;;4.71;100.00;99020.53;5004016;28;20056;-42
2023/01/15 12:09:06;;;;;;;10.00;3.03;;;;;;;4.69;100.00;99003.59;5008360;28;20034;-42
2023/01/15 12:12:07;;;;;;;14.93;2.83;;;;;;;4.67;100.00;99014.94;5004658;28;20061;-47
2023/01/15 12:14:58;;;;;;;4.88;2.17;;;;;;;4.63;100.00;99019.50;5004219;28;20502;-44
2023/01/15 12:18:06;;;;;;;8.45;2.75;;;;;;;4.60;100.00;99008.47;5008077;28;20049;-48
2023/01/15 12:20:43;;;;;;;9.63;2.35;;;;;;;4.57;100.00;99014.63;4927849;29;20502;-42
2023/01/15 12:23:43;;;;;;;10.82;2.42;;;;;;;4.56;100.00;99023.97;5001713;28;20057;-43
2023/01/15 12:26:16;;;;;;;8.23;1.80;;;;;;;4.53;100.00;99020.00;4994695;28;20080;-43
2023/01/15 12:29:03;;;;;;;12.98;3.03;;;;;;;4.56;100.00;99000.13;5007556;28;20103;-43
2023/01/15 12:31:48;;;;;;;10.52;2.42;;;;;;;4.61;100.00;98997.13;5015441;28;20052;-43
2023/01/15 12:34:24;;;;;;;13.30;2.90;;;;;;;4.65;100.00;98994.50;5007761;28;20049;-43
2023/01/15 12:37:05;;;;;;;6.95;1.80;;;;;;;4.69;100.00;98989.91;5007940;28;20042;-42
2023/01/15 12:39:53;;;;;;;11.00;2.30;;;;;;;4.75;100.00;98996.75;5007628;28;20096;-48
2023/01/15 12:45:17;;;;;;;6.68;1.67;;;;;;;4.81;100.00;98995.34;5000927;28;20131;-44
2023/01/15 12:47:52;;;;;;;9.07;2.80;;;;;;;4.80;100.00;98985.53;5014318;28;20041;-42
2023/01/15 12:50:38;;;;;;;8.98;2.45;;;;;;;4.79;100.00;98970.25;5011018;28;20116;-43
2023/01/15 12:53:35;;;;;;;4.80;2.50;;;;;;;4.75;100.00;98980.28;5006907;28;20484;-43
2023/01/15 12:56:23;;;;;;;5.32;3.00;;;;;;;4.73;100.00;98983.41;5007433;28;20488;-43
2023/01/15 12:59:01;;;;;;;8.43;2.80;;;;;;;4.75;100.00;98980.28;5007272;28;20045;-43